Time;durP1;ratioP1;P1;durP2;ratioP2;P2;SDS_P1;SDS_P2;PMS_P1;PMS_P2;Temp;Humidity;BMP_temperature;BMP_pressure;BME280_temperature;BME280_humidity;BME280_pressure;Samples;Min_cycle;Max_cycle;Signal;HPM_P1;HPM_P2
2021/04/13 00:00:33;;;;;;;0.30;0.30;;;4.90;99.90;;;;;;5046771;28;20340;-81
2021/04/13 00:03:03;;;;;;;0.30;0.30;;;4.90;99.90;;;;;;5047182;28;20307;-80
2021/04/13 00:05:32;;;;;;;0.43;0.40;;;4.70;99.90;;;;;;5047270;28;20320;-80
2021/04/13 00:08:00;;;;;;;0.40;0.40;;;4.70;99.90;;;;;;5050647;28;20196;-80
2021/04/13 00:10:39;;;;;;;0.20;0.20;;;4.70;99.90;;;;;;5064335;28;20228;-78
2021/04/13 00:13:08;;;;;;;0.60;0.60;;;4.60;99.90;;;;;;5043763;28;20690;-80
2021/04/13 00:15:48;;;;;;;0.40;0.40;;;4.60;99.90;;;;;;5029107;28;20690;-80
2021/04/13 00:18:15;;;;;;;0.30;0.30;;;4.60;99.90;;;;;;5045571;28;20254;-80
2021/04/13 00:20:54;;;;;;;0.93;0.93;;;4.60;99.90;;;;;;5047916;28;20232;-80
2021/04/13 00:23:21;;;;;;;0.20;0.20;;;4.50;99.90;;;;;;5048882;28;20230;-80
2021/04/13 00:26:00;;;;;;;24.07;1.27;;;4.40;99.90;;;;;;5047330;28;20281;-80
2021/04/13 00:28:29;;;;;;;0.20;0.20;;;4.30;99.90;;;;;;5047360;28;20228;-81
2021/04/13 00:30:58;;;;;;;0.57;0.57;;;4.30;99.90;;;;;;5064501;28;20208;-81
2021/04/13 00:33:30;;;;;;;0.63;0.43;;;4.20;99.90;;;;;;5046823;28;21003;-82
2021/04/13 00:36:09;;;;;;;0.30;0.30;;;4.20;99.90;;;;;;5064948;28;20335;-81
2021/04/13 00:38:46;;;;;;;51.40;2.53;;;4.30;99.90;;;;;;5046402;28;20297;-81
2021/04/13 00:41:31;;;;;;;0.63;0.63;;;4.30;99.90;;;;;;5047330;28;20188;-80
2021/04/13 00:43:59;;;;;;;0.20;0.20;;;4.50;99.90;;;;;;5069284;28;20188;-80
2021/04/13 00:46:57;;;;;;;2.00;0.50;;;4.50;99.90;;;;;;5051608;28;21319;-80
2021/04/13 00:49:26;;;;;;;0.63;0.63;;;4.60;99.90;;;;;;5049621;28;20304;-80
2021/04/13 00:51:58;;;;;;;0.53;0.53;;;4.60;99.90;;;;;;5052881;28;20286;-80
2021/04/13 00:54:31;;;;;;;5.30;0.50;;;4.60;99.90;;;;;;5067782;28;20224;-80
2021/04/13 00:57:01;;;;;;;2.37;1.60;;;4.50;99.90;;;;;;5053381;28;20236;-80
2021/04/13 00:59:28;;;;;;;0.93;0.93;;;4.40;99.90;;;;;;5067601;28;20180;-82
2021/04/13 01:02:02;;;;;;;0.20;0.20;;;4.30;99.90;;;;;;5036595;28;20194;-79
2021/04/13 01:04:52;;;;;;;1.67;0.37;;;4.20;99.90;;;;;;5051054;28;20244;-80
2021/04/13 01:07:26;;;;;;;1.60;0.70;;;4.20;99.90;;;;;;5066825;28;20299;-79
2021/04/13 01:09:57;;;;;;;0.63;0.63;;;4.20;99.90;;;;;;5048473;28;20325;-80
2021/04/13 01:12:32;;;;;;;0.70;0.70;;;4.20;99.90;;;;;;5047710;28;20229;-79
2021/04/13 01:15:00;;;;;;;0.63;0.63;;;4.40;99.90;;;;;;5065856;28;20225;-80
2021/04/13 01:17:27;;;;;;;0.80;0.73;;;4.50;99.90;;;;;;5030292;28;21050;-80
2021/04/13 01:20:12;;;;;;;0.30;0.30;;;4.60;99.90;;;;;;5071308;28;20181;-82
2021/04/13 01:25:24;;;;;;;0.70;0.70;;;4.70;99.90;;;;;;5069323;28;20259;-80
2021/04/13 01:27:54;;;;;;;0.80;0.80;;;4.70;99.90;;;;;;5051158;28;20212;-79
2021/04/13 01:30:22;;;;;;;0.30;0.30;;;4.70;99.90;;;;;;5050270;28;20247;-80
2021/04/13 01:32:48;;;;;;;0.30;0.30;;;4.80;99.90;;;;;;5049788;28;20228;-81
2021/04/13 01:35:15;;;;;;;5.30;0.57;;;4.90;99.90;;;;;;5051225;28;20213;-81
2021/04/13 01:40:29;;;;;;;0.20;0.20;;;4.90;99.90;;;;;;5068359;28;20216;-79
2021/04/13 01:42:56;;;;;;;0.60;0.60;;;4.90;99.90;;;;;;5052533;28;20216;-79
2021/04/13 01:45:30;;;;;;;5.40;1.83;;;4.80;99.90;;;;;;5025163;28;20955;-80
2021/04/13 01:47:57;;;;;;;0.40;0.40;;;4.70;99.90;;;;;;5052251;28;20246;-80
2021/04/13 01:50:51;;;;;;;0.30;0.30;;;4.70;99.90;;;;;;5050363;28;20204;-79
2021/04/13 01:53:21;;;;;;;6.90;0.50;;;4.70;99.90;;;;;;5066739;28;20214;-80
2021/04/13 01:56:10;;;;;;;0.20;0.20;;;4.70;99.90;;;;;;5050464;28;20231;-79
2021/04/13 01:58:47;;;;;;;0.30;0.30;;;4.70;99.90;;;;;;5048271;28;20245;-81
2021/04/13 02:01:34;;;;;;;0.40;0.40;;;4.70;99.90;;;;;;5049227;28;20223;-81
2021/04/13 02:04:14;;;;;;;1.10;1.10;;;4.70;99.90;;;;;;5070643;28;20216;-81
2021/04/13 02:06:41;;;;;;;0.47;0.47;;;4.70;99.90;;;;;;5050090;28;20217;-82
2021/04/13 02:09:30;;;;;;;0.30;0.30;;;4.70;99.90;;;;;;5051091;28;20220;-81
2021/04/13 02:12:02;;;;;;;0.20;0.20;;;4.60;99.90;;;;;;5067940;28;20331;-81
2021/04/13 02:14:37;;;;;;;0.27;0.27;;;4.60;99.90;;;;;;5049590;28;20187;-82
2021/04/13 02:17:19;;;;;;;0.40;0.40;;;4.70;99.90;;;;;;5050324;28;20188;-81
2021/04/13 02:19:50;;;;;;;1.77;0.57;;;4.60;99.90;;;;;;5069142;28;20263;-81
2021/04/13 02:22:19;;;;;;;0.40;0.40;;;4.50;99.90;;;;;;5050086;28;20689;-81
2021/04/13 02:24:47;;;;;;;0.30;0.30;;;4.60;99.90;;;;;;5067968;28;20653;-81
2021/04/13 02:27:16;;;;;;;0.20;0.20;;;4.50;99.90;;;;;;5049968;28;20244;-81
2021/04/13 02:29:51;;;;;;;0.27;0.27;;;4.50;99.90;;;;;;5048742;28;20247;-81
2021/04/13 02:32:30;;;;;;;0.53;0.53;;;4.40;99.90;;;;;;5046791;28;20188;-80
2021/04/13 02:35:05;;;;;;;0.40;0.40;;;4.50;99.90;;;;;;5051179;28;20208;-79
2021/04/13 02:38:02;;;;;;;0.67;0.67;;;4.50;99.90;;;;;;5048962;28;20549;-81
2021/04/13 02:40:56;;;;;;;0.53;0.50;;;4.50;99.90;;;;;;5044780;28;20674;-79
2021/04/13 02:43:32;;;;;;;0.70;0.70;;;4.50;99.90;;;;;;5064361;28;20312;-79
2021/04/13 02:46:04;;;;;;;0.23;0.23;;;4.50;99.90;;;;;;5046356;28;20583;-79
2021/04/13 02:48:35;;;;;;;0.30;0.30;;;4.50;99.90;;;;;;5064267;28;20556;-79
2021/04/13 02:51:05;;;;;;;0.20;0.20;;;4.50;99.90;;;;;;5062266;28;20797;-80
2021/04/13 02:53:47;;;;;;;2.47;1.23;;;4.40;99.90;;;;;;5043598;28;20216;-79
2021/04/13 02:56:20;;;;;;;1.47;0.73;;;4.40;99.90;;;;;;5040824;28;20204;-80
2021/04/13 02:59:04;;;;;;;0.30;0.30;;;4.40;99.90;;;;;;5046860;28;20186;-79
2021/04/13 03:01:35;;;;;;;0.97;0.97;;;4.40;99.90;;;;;;5044579;28;20216;-79
2021/04/13 03:04:08;;;;;;;0.20;0.20;;;4.50;99.90;;;;;;5046921;28;20213;-81
2021/04/13 03:06:46;;;;;;;4.17;0.40;;;4.40;99.90;;;;;;5062087;28;20224;-82
2021/04/13 03:09:15;;;;;;;18.70;0.93;;;4.40;99.90;;;;;;5065073;28;20220;-80
2021/04/13 03:11:50;;;;;;;0.30;0.30;;;4.40;99.90;;;;;;5046598;28;20219;-82
2021/04/13 03:14:19;;;;;;;3.57;0.97;;;4.40;99.90;;;;;;5063482;28;20203;-80
2021/04/13 03:16:47;;;;;;;0.63;0.63;;;4.40;99.90;;;;;;5067227;28;20213;-80
2021/04/13 03:19:18;;;;;;;0.30;0.30;;;4.40;99.90;;;;;;5065325;28;20224;-81
2021/04/13 03:21:50;;;;;;;0.40;0.40;;;4.30;99.90;;;;;;5047568;28;20779;-80
2021/04/13 03:24:22;;;;;;;1.63;0.67;;;4.30;99.90;;;;;;5042152;28;20593;-80
2021/04/13 03:26:58;;;;;;;0.40;0.40;;;4.30;99.90;;;;;;5044405;28;20220;-80
2021/04/13 03:29:30;;;;;;;0.20;0.20;;;4.20;99.90;;;;;;5042307;28;20173;-82
2021/04/13 03:31:58;;;;;;;0.30;0.30;;;4.20;99.90;;;;;;5040462;28;20187;-82
2021/04/13 03:34:25;;;;;;;0.60;0.50;;;4.20;99.90;;;;;;5043938;28;20214;-80
2021/04/13 03:36:54;;;;;;;15.30;0.93;;;4.20;99.90;;;;;;5035007;28;21283;-81
2021/04/13 03:39:29;;;;;;;0.87;0.87;;;4.20;99.90;;;;;;5044103;28;21204;-79
2021/04/13 03:41:56;;;;;;;0.50;0.50;;;4.20;99.90;;;;;;5042299;28;20213;-79
2021/04/13 03:44:23;;;;;;;0.87;0.43;;;4.20;99.90;;;;;;5048009;28;20189;-79
2021/04/13 03:46:49;;;;;;;0.30;0.30;;;4.10;99.90;;;;;;5028946;28;20198;-80
2021/04/13 03:49:19;;;;;;;1.17;1.07;;;4.20;99.90;;;;;;5027337;28;20214;-80
2021/04/13 03:51:51;;;;;;;0.33;0.33;;;4.10;99.90;;;;;;5045036;28;20220;-80
2021/04/13 03:54:19;;;;;;;1.33;1.33;;;4.10;99.90;;;;;;5042470;28;20229;-82
2021/04/13 03:56:45;;;;;;;0.50;0.50;;;4.10;99.90;;;;;;5043489;28;20959;-81
2021/04/13 03:59:24;;;;;;;0.40;0.40;;;4.10;99.90;;;;;;5043677;28;20713;-80
2021/04/13 04:01:51;;;;;;;0.30;0.30;;;4.10;99.90;;;;;;5043890;28;20224;-81
2021/04/13 04:04:38;;;;;;;0.50;0.50;;;4.20;99.90;;;;;;5029679;28;20442;-80
2021/04/13 04:07:20;;;;;;;1.03;1.03;;;4.20;99.90;;;;;;5043542;28;20267;-81
2021/04/13 04:09:46;;;;;;;0.30;0.30;;;4.20;99.90;;;;;;5043756;28;20217;-81
2021/04/13 04:12:22;;;;;;;0.20;0.20;;;4.20;99.90;;;;;;5028507;28;20222;-80
2021/04/13 04:15:09;;;;;;;0.60;0.60;;;4.20;99.90;;;;;;5044691;28;20220;-79
2021/04/13 04:17:37;;;;;;;0.53;0.53;;;4.20;99.90;;;;;;5043651;28;20228;-79
2021/04/13 04:20:09;;;;;;;0.33;0.33;;;4.20;99.90;;;;;;5068866;28;20185;-79
2021/04/13 04:22:44;;;;;;;0.30;0.30;;;4.10;99.90;;;;;;5051647;28;20223;-79
2021/04/13 04:25:19;;;;;;;0.30;0.30;;;4.10;99.90;;;;;;5062449;28;20312;-79
2021/04/13 04:27:46;;;;;;;1.50;0.73;;;4.10;99.90;;;;;;5055673;28;20249;-79
2021/04/13 04:30:33;;;;;;;6.30;0.50;;;4.20;99.90;;;;;;5054698;28;20690;-80
2021/04/13 04:33:00;;;;;;;0.50;0.50;;;4.20;99.90;;;;;;5055177;28;20209;-81
2021/04/13 04:35:41;;;;;;;0.30;0.30;;;4.30;99.90;;;;;;5056087;28;20213;-81
2021/04/13 04:38:24;;;;;;;0.30;0.30;;;4.30;99.90;;;;;;5075215;28;20188;-81
2021/04/13 04:40:55;;;;;;;0.40;0.40;;;4.40;99.90;;;;;;5073940;28;20213;-83
2021/04/13 04:43:56;;;;;;;0.40;0.40;;;4.40;99.90;;;;;;5071895;28;20224;-80
2021/04/13 04:46:36;;;;;;;0.23;0.23;;;4.30;99.90;;;;;;5070383;28;20235;-82
2021/04/13 04:49:10;;;;;;;0.23;0.23;;;4.30;99.90;;;;;;5069017;28;20316;-81
2021/04/13 04:51:37;;;;;;;0.30;0.30;;;4.20;99.90;;;;;;5048891;28;20288;-81
2021/04/13 04:54:06;;;;;;;0.60;0.60;;;4.20;99.90;;;;;;5068621;28;20227;-80
2021/04/13 04:56:33;;;;;;;0.40;0.40;;;4.10;99.90;;;;;;5032203;28;20229;-79
2021/04/13 04:59:01;;;;;;;0.93;0.93;;;4.10;99.90;;;;;;5038037;28;20227;-81
2021/04/13 05:01:27;;;;;;;1.43;1.33;;;4.20;99.90;;;;;;5038515;28;20225;-82
2021/04/13 05:03:53;;;;;;;0.30;0.30;;;4.20;99.90;;;;;;5054984;28;20614;-81
2021/04/13 05:06:19;;;;;;;2.40;1.13;;;4.20;99.90;;;;;;5053719;28;20228;-80
2021/04/13 05:08:46;;;;;;;0.50;0.50;;;4.20;99.90;;;;;;5068545;28;20225;-80
2021/04/13 05:11:13;;;;;;;0.67;0.67;;;4.30;99.90;;;;;;5037606;28;20242;-79
2021/04/13 05:13:39;;;;;;;0.30;0.30;;;4.30;99.90;;;;;;5071213;28;20212;-80
2021/04/13 05:16:05;;;;;;;0.30;0.30;;;4.30;99.90;;;;;;5019833;28;20217;-81
2021/04/13 05:18:31;;;;;;;0.50;0.50;;;4.60;99.90;;;;;;5036665;28;20228;-81
2021/04/13 05:20:56;;;;;;;3.40;0.40;;;5.10;99.90;;;;;;5052245;28;20228;-81
2021/04/13 05:23:23;;;;;;;1.07;1.07;;;5.50;99.90;;;;;;5038393;28;20709;-82
2021/04/13 05:25:49;;;;;;;1.37;1.37;;;5.70;99.90;;;;;;5057094;28;20215;-81
2021/04/13 05:28:16;;;;;;;2.90;1.00;;;5.60;99.90;;;;;;5031027;28;20726;-81
2021/04/13 05:30:43;;;;;;;0.30;0.30;;;5.40;99.90;;;;;;5031488;28;20319;-80
2021/04/13 05:33:10;;;;;;;0.30;0.30;;;5.30;99.90;;;;;;5051185;28;20270;-81
2021/04/13 05:35:36;;;;;;;0.40;0.40;;;5.60;99.90;;;;;;5050716;28;20228;-80
2021/04/13 05:38:09;;;;;;;0.27;0.27;;;6.00;99.90;;;;;;5047473;28;20273;-79
2021/04/13 05:40:37;;;;;;;5.60;1.10;;;6.50;99.90;;;;;;5048232;28;20936;-81
2021/04/13 05:43:04;;;;;;;2.10;2.00;;;6.90;99.90;;;;;;5050257;28;20255;-79
2021/04/13 05:45:33;;;;;;;3.13;0.90;;;7.50;99.90;;;;;;5050099;28;20235;-81
2021/04/13 05:47:59;;;;;;;1.43;0.70;;;7.90;99.90;;;;;;5047690;28;20730;-80
2021/04/13 05:50:31;;;;;;;1.97;0.93;;;8.20;99.90;;;;;;5047804;28;20746;-82
2021/04/13 05:52:56;;;;;;;3.33;0.90;;;8.30;99.90;;;;;;5044884;28;20184;-83
2021/04/13 05:55:22;;;;;;;0.83;0.83;;;8.70;99.90;;;;;;5064163;28;20212;-83
2021/04/13 05:57:53;;;;;;;1.20;0.87;;;8.60;99.90;;;;;;5049512;28;20686;-81
2021/04/13 06:00:23;;;;;;;0.20;0.20;;;9.10;99.90;;;;;;5049621;28;20217;-80
2021/04/13 06:02:49;;;;;;;1.60;0.63;;;8.80;99.90;;;;;;5048968;28;20229;-81
2021/04/13 06:05:18;;;;;;;0.37;0.37;;;7.70;99.90;;;;;;5032052;28;20647;-81
2021/04/13 06:07:44;;;;;;;2.63;0.50;;;8.10;99.90;;;;;;5050134;28;20188;-81
2021/04/13 06:10:10;;;;;;;0.40;0.40;;;8.50;99.90;;;;;;5030938;28;20220;-82
2021/04/13 06:12:36;;;;;;;0.43;0.43;;;7.80;99.90;;;;;;5046219;28;20221;-81
2021/04/13 06:15:04;;;;;;;0.67;0.50;;;8.30;99.90;;;;;;5030585;28;20710;-82
2021/04/13 06:17:30;;;;;;;2.10;1.23;;;9.10;99.90;;;;;;5046759;28;20228;-82
2021/04/13 06:19:55;;;;;;;0.30;0.30;;;10.20;99.90;;;;;;5031733;28;20575;-82
2021/04/13 06:22:21;;;;;;;0.73;0.63;;;10.80;99.90;;;;;;5029696;28;20597;-81
2021/04/13 06:24:47;;;;;;;0.30;0.30;;;10.50;99.90;;;;;;5016500;28;20613;-81
2021/04/13 06:27:13;;;;;;;2.63;0.70;;;11.00;99.90;;;;;;5015029;28;20701;-82
2021/04/13 06:29:38;;;;;;;1.10;1.00;;;11.10;99.90;;;;;;5030989;28;20730;-81
2021/04/13 06:32:09;;;;;;;3.13;0.73;;;10.90;99.90;;;;;;5050241;28;20189;-82
2021/04/13 06:34:35;;;;;;;2.93;1.37;;;10.60;99.90;;;;;;5052634;28;20212;-81
2021/04/13 06:37:04;;;;;;;0.40;0.40;;;10.00;99.90;;;;;;5069698;28;20282;-85
2021/04/13 06:39:32;;;;;;;2.33;0.77;;;8.30;99.90;;;;;;5066696;28;20209;-82
2021/04/13 06:42:19;;;;;;;3.43;0.40;;;7.90;99.90;;;;;;5048767;28;20277;-83
2021/04/13 06:45:12;;;;;;;0.40;0.40;;;7.80;99.90;;;;;;5069079;28;20251;-80
2021/04/13 06:47:52;;;;;;;0.40;0.40;;;7.50;99.90;;;;;;5049629;28;20252;-81
2021/04/13 06:50:39;;;;;;;1.30;1.03;;;7.10;99.90;;;;;;5050331;28;20177;-81
2021/04/13 06:53:31;;;;;;;2.00;1.13;;;7.10;99.90;;;;;;5052182;28;20983;-81
2021/04/13 06:56:14;;;;;;;0.57;0.57;;;7.90;99.90;;;;;;5065618;28;21385;-82
2021/04/13 06:59:17;;;;;;;1.13;0.40;;;9.50;99.90;;;;;;5067407;28;20273;-82
2021/04/13 07:01:51;;;;;;;1.90;1.67;;;10.40;99.90;;;;;;5066812;28;20734;-82
2021/04/13 07:04:59;;;;;;;0.20;0.20;;;11.20;99.90;;;;;;5069403;28;20227;-82
2021/04/13 07:07:59;;;;;;;0.70;0.37;;;12.50;99.90;;;;;;5050837;28;20223;-82
2021/04/13 07:10:37;;;;;;;1.90;0.63;;;11.30;99.90;;;;;;5049091;28;20463;-82
2021/04/13 07:13:14;;;;;;;3.53;0.73;;;11.10;99.90;;;;;;5051841;28;20216;-82
2021/04/13 07:15:48;;;;;;;0.77;0.77;;;11.00;99.90;;;;;;5048443;28;20216;-81
2021/04/13 07:18:42;;;;;;;0.43;0.43;;;11.60;99.90;;;;;;5066133;28;20217;-81
2021/04/13 07:21:23;;;;;;;0.30;0.30;;;11.60;99.90;;;;;;5049794;28;20238;-82
2021/04/13 07:24:27;;;;;;;0.70;0.70;;;10.80;99.90;;;;;;5047733;28;20290;-82
2021/04/13 07:27:15;;;;;;;2.00;0.43;;;11.10;99.90;;;;;;5035844;28;20251;-82
2021/04/13 07:29:48;;;;;;;1.17;1.07;;;9.80;99.90;;;;;;5065437;28;20212;-81
2021/04/13 07:32:22;;;;;;;0.87;0.87;;;10.60;99.90;;;;;;5048623;28;20185;-81
2021/04/13 07:34:53;;;;;;;3.77;1.67;;;11.00;99.90;;;;;;5068093;28;20223;-81
2021/04/13 07:37:44;;;;;;;1.83;0.70;;;9.90;99.90;;;;;;5048625;28;20224;-82
2021/04/13 07:40:24;;;;;;;0.30;0.30;;;9.40;99.90;;;;;;5039710;28;20289;-81
2021/04/13 07:43:11;;;;;;;0.40;0.40;;;8.80;99.90;;;;;;5051804;28;20213;-82
2021/04/13 07:45:50;;;;;;;0.20;0.20;;;8.10;99.90;;;;;;5066870;28;20216;-80
2021/04/13 07:48:43;;;;;;;0.20;0.20;;;7.40;99.90;;;;;;5049466;28;20214;-80
2021/04/13 07:51:34;;;;;;;3.27;0.40;;;7.20;99.90;;;;;;5047202;28;20255;-80
2021/04/13 07:54:15;;;;;;;0.40;0.40;;;7.20;99.90;;;;;;5049596;28;21187;-80
2021/04/13 07:56:43;;;;;;;4.53;0.70;;;7.60;99.90;;;;;;5066867;28;20231;-82
2021/04/13 07:59:27;;;;;;;0.20;0.20;;;7.70;99.90;;;;;;5066424;28;20197;-80
2021/04/13 08:01:53;;;;;;;0.30;0.30;;;7.40;99.90;;;;;;5067264;28;20207;-82
2021/04/13 08:04:22;;;;;;;0.20;0.20;;;7.30;99.90;;;;;;5035241;28;20220;-83
2021/04/13 08:07:10;;;;;;;0.27;0.27;;;7.30;99.90;;;;;;5066591;28;20282;-81
2021/04/13 08:09:54;;;;;;;0.37;0.37;;;7.10;99.90;;;;;;5047570;28;20335;-82
2021/04/13 08:12:30;;;;;;;0.63;0.50;;;6.90;99.90;;;;;;5054861;28;20220;-83
2021/04/13 08:14:56;;;;;;;0.30;0.30;;;7.90;99.90;;;;;;5068298;28;20213;-81
2021/04/13 08:17:24;;;;;;;0.40;0.40;;;8.70;99.90;;;;;;5046084;28;20306;-81
2021/04/13 08:20:04;;;;;;;0.30;0.30;;;9.30;99.90;;;;;;5046289;28;20301;-82
2021/04/13 08:22:47;;;;;;;0.40;0.40;;;9.70;99.90;;;;;;5048693;28;20655;-81
2021/04/13 08:25:32;;;;;;;0.20;0.20;;;10.00;99.90;;;;;;5066221;28;20228;-83
2021/04/13 08:28:15;;;;;;;0.20;0.20;;;9.40;99.90;;;;;;5047501;28;20216;-82
2021/04/13 08:34:11;;;;;;;0.30;0.30;;;10.30;99.90;;;;;;5067293;28;20735;-83
2021/04/13 08:36:48;;;;;;;0.30;0.30;;;10.30;99.90;;;;;;5051679;28;20217;-82
2021/04/13 08:39:58;;;;;;;0.20;0.20;;;9.70;99.90;;;;;;5051821;28;20252;-82
2021/04/13 08:42:44;;;;;;;1.03;1.03;;;9.60;99.90;;;;;;5048137;28;20220;-81
2021/04/13 08:45:18;;;;;;;2.00;0.83;;;9.80;99.90;;;;;;5066166;28;20225;-82
2021/04/13 08:47:52;;;;;;;2.97;0.67;;;10.10;99.90;;;;;;5065175;28;21649;-82
2021/04/13 08:50:38;;;;;;;0.30;0.30;;;10.60;99.90;;;;;;5051213;28;20220;-82
2021/04/13 08:53:27;;;;;;;0.30;0.30;;;10.50;99.90;;;;;;5052168;28;20990;-81
2021/04/13 08:56:05;;;;;;;1.17;0.40;;;10.10;99.90;;;;;;5046250;28;20244;-82
2021/04/13 08:58:49;;;;;;;0.80;0.80;;;9.80;99.90;;;;;;5065267;28;20228;-80
2021/04/13 09:01:28;;;;;;;1.07;0.57;;;9.80;99.90;;;;;;5048287;28;20278;-81
2021/04/13 09:03:54;;;;;;;0.50;0.50;;;10.30;99.90;;;;;;5051421;28;20221;-83
2021/04/13 09:06:42;;;;;;;0.20;0.20;;;10.20;99.90;;;;;;5016282;28;20227;-81
2021/04/13 09:09:17;;;;;;;4.60;0.77;;;9.80;99.90;;;;;;5069827;28;20224;-82
2021/04/13 09:11:48;;;;;;;0.47;0.47;;;8.90;99.90;;;;;;5052678;28;20715;-81
2021/04/13 09:14:36;;;;;;;0.20;0.20;;;9.40;99.90;;;;;;5053336;28;20233;-81
2021/04/13 09:17:19;;;;;;;0.27;0.27;;;10.50;99.90;;;;;;5052318;28;20466;-82
2021/04/13 09:20:04;;;;;;;0.20;0.20;;;10.20;99.90;;;;;;5069998;28;20221;-81
2021/04/13 09:23:09;;;;;;;0.23;0.23;;;10.50;99.90;;;;;;5052173;28;20232;-82
2021/04/13 09:25:44;;;;;;;0.97;0.50;;;11.00;99.90;;;;;;5050424;28;20243;-82
2021/04/13 09:28:12;;;;;;;0.20;0.20;;;10.80;99.90;;;;;;5052081;28;20413;-81
2021/04/13 09:30:49;;;;;;;0.57;0.57;;;11.20;99.90;;;;;;5048533;28;20217;-81
2021/04/13 09:33:20;;;;;;;4.23;0.50;;;11.30;99.90;;;;;;5067941;28;21307;-81
2021/04/13 09:36:05;;;;;;;0.63;0.63;;;11.00;99.90;;;;;;5045403;28;20248;-80
2021/04/13 09:38:38;;;;;;;0.20;0.20;;;10.60;99.90;;;;;;5050543;28;20309;-81
2021/04/13 09:41:30;;;;;;;0.73;0.57;;;10.80;99.90;;;;;;5051892;28;20193;-81
2021/04/13 09:43:58;;;;;;;0.20;0.20;;;11.10;99.90;;;;;;5071306;28;20216;-81
2021/04/13 09:46:47;;;;;;;0.40;0.30;;;10.70;99.90;;;;;;5050769;28;20225;-82
2021/04/13 09:49:31;;;;;;;0.57;0.57;;;10.30;99.90;;;;;;5050997;28;20221;-81
2021/04/13 09:52:19;;;;;;;0.40;0.40;;;10.60;99.90;;;;;;5050166;28;20212;-81
2021/04/13 09:55:14;;;;;;;1.23;0.33;;;10.30;99.90;;;;;;5044747;28;20236;-80
2021/04/13 09:57:54;;;;;;;3.70;0.50;;;10.50;99.90;;;;;;5055885;28;20224;-82
2021/04/13 10:00:23;;;;;;;1.70;1.23;;;10.10;99.90;;;;;;5051391;28;20229;-83
2021/04/13 10:03:23;;;;;;;0.30;0.30;;;10.40;99.90;;;;;;5051080;28;21210;-82
2021/04/13 10:05:52;;;;;;;3.80;0.80;;;10.80;99.90;;;;;;5049991;28;20212;-80
2021/04/13 10:08:29;;;;;;;0.20;0.20;;;10.50;99.90;;;;;;5070239;28;20197;-81
2021/04/13 10:11:07;;;;;;;0.20;0.20;;;10.30;99.90;;;;;;5053022;28;20178;-81
2021/04/13 10:13:51;;;;;;;0.40;0.40;;;10.30;99.90;;;;;;5051650;28;20264;-82
2021/04/13 10:16:48;;;;;;;0.27;0.27;;;10.30;99.90;;;;;;5069346;28;20259;-81
2021/04/13 10:19:25;;;;;;;0.30;0.30;;;11.00;99.90;;;;;;5070382;28;20307;-81
2021/04/13 10:22:00;;;;;;;0.13;0.13;;;10.90;99.90;;;;;;5051326;28;20221;-80
2021/04/13 10:24:40;;;;;;;0.30;0.30;;;10.50;99.90;;;;;;5052503;28;20240;-81
2021/04/13 10:27:43;;;;;;;0.20;0.20;;;10.50;99.90;;;;;;5050823;28;20217;-81
2021/04/13 10:30:32;;;;;;;0.43;0.43;;;11.10;99.90;;;;;;5071794;28;20225;-80
2021/04/13 10:33:06;;;;;;;0.20;0.20;;;10.10;99.90;;;;;;5050691;28;20297;-80
2021/04/13 10:36:08;;;;;;;0.30;0.30;;;10.30;99.90;;;;;;5049622;28;20697;-81
2021/04/13 10:38:54;;;;;;;0.50;0.50;;;9.70;99.90;;;;;;5064785;28;20332;-82
2021/04/13 10:41:57;;;;;;;0.10;0.10;;;10.30;99.90;;;;;;5065006;28;20185;-81
2021/04/13 10:44:54;;;;;;;0.17;0.17;;;10.50;99.90;;;;;;5051302;28;20194;-80
2021/04/13 10:47:54;;;;;;;0.30;0.30;;;10.80;99.90;;;;;;5048342;28;20642;-81
2021/04/13 10:50:57;;;;;;;0.70;0.40;;;10.40;99.90;;;;;;5047747;28;20192;-83
2021/04/13 10:53:35;;;;;;;0.20;0.20;;;11.00;99.90;;;;;;5049233;28;20275;-81
2021/04/13 10:56:16;;;;;;;0.20;0.20;;;10.00;99.90;;;;;;5045965;28;20213;-80
2021/04/13 10:58:50;;;;;;;0.27;0.27;;;10.80;99.90;;;;;;5047171;28;20229;-81
2021/04/13 11:01:34;;;;;;;0.80;0.80;;;10.40;99.90;;;;;;5068096;28;20224;-80
2021/04/13 11:04:41;;;;;;;0.37;0.37;;;10.50;99.90;;;;;;5049209;28;20220;-82
2021/04/13 11:07:44;;;;;;;1.10;0.83;;;10.40;99.90;;;;;;5032125;28;20705;-81
2021/04/13 11:10:55;;;;;;;1.13;1.13;;;10.50;99.90;;;;;;5049139;28;20251;-80
2021/04/13 11:13:44;;;;;;;0.53;0.30;;;9.90;99.90;;;;;;5028345;28;20255;-82
2021/04/13 11:16:33;;;;;;;2.10;0.30;;;9.70;99.90;;;;;;5053848;28;20287;-83
2021/04/13 11:19:33;;;;;;;0.30;0.30;;;10.20;99.90;;;;;;5067153;28;20212;-82
2021/04/13 11:22:37;;;;;;;0.50;0.50;;;9.30;99.90;;;;;;5067553;28;20539;-82
2021/04/13 11:25:26;;;;;;;0.20;0.20;;;8.60;99.90;;;;;;5022648;28;20240;-83
2021/04/13 11:28:29;;;;;;;0.50;0.30;;;9.40;99.90;;;;;;5044085;28;20240;-79
2021/04/13 11:31:39;;;;;;;0.63;0.63;;;9.90;99.90;;;;;;5044380;28;20216;-81
2021/04/13 11:34:35;;;;;;;1.20;1.10;;;10.70;99.90;;;;;;5020841;28;20620;-81
2021/04/13 11:37:20;;;;;;;0.63;0.53;;;10.20;99.90;;;;;;5043538;28;20241;-82
2021/04/13 11:40:27;;;;;;;0.10;0.10;;;10.40;99.90;;;;;;5041543;28;20627;-82
2021/04/13 11:42:56;;;;;;;0.30;0.30;;;10.20;99.90;;;;;;4985132;28;20224;-80
2021/04/13 11:45:56;;;;;;;0.20;0.20;;;10.30;99.90;;;;;;4986533;28;20236;-80
2021/04/13 11:48:29;;;;;;;0.30;0.30;;;10.30;99.90;;;;;;5032722;28;20228;-82
2021/04/13 11:51:01;;;;;;;0.40;0.40;;;9.90;99.90;;;;;;5045091;28;21256;-80
2021/04/13 11:53:42;;;;;;;0.70;0.70;;;9.70;99.90;;;;;;5045272;28;20285;-81
2021/04/13 11:56:23;;;;;;;0.30;0.30;;;9.40;99.90;;;;;;5043974;28;20215;-82
2021/04/13 11:59:17;;;;;;;0.20;0.20;;;9.50;99.90;;;;;;5044773;28;20232;-81
2021/04/13 12:01:49;;;;;;;0.20;0.20;;;9.50;99.90;;;;;;5064431;28;20213;-80
2021/04/13 12:04:39;;;;;;;0.57;0.57;;;9.30;99.90;;;;;;5047021;28;20214;-83
2021/04/13 12:07:07;;;;;;;0.30;0.30;;;9.40;99.90;;;;;;5061809;28;21055;-82
2021/04/13 12:09:42;;;;;;;0.37;0.37;;;9.60;99.90;;;;;;5045048;28;20223;-80
2021/04/13 12:12:33;;;;;;;0.30;0.30;;;9.50;99.90;;;;;;5043142;28;20219;-80
2021/04/13 12:15:19;;;;;;;0.60;0.60;;;9.50;99.90;;;;;;5045229;28;20225;-80
2021/04/13 12:17:54;;;;;;;0.27;0.27;;;9.20;99.90;;;;;;5044642;28;20229;-80
2021/04/13 12:20:26;;;;;;;0.20;0.20;;;8.80;99.90;;;;;;5043960;28;20311;-81
2021/04/13 12:23:00;;;;;;;1.33;0.50;;;8.80;99.90;;;;;;5045874;28;20208;-81
2021/04/13 12:26:07;;;;;;;0.20;0.20;;;9.00;99.90;;;;;;5042544;28;20241;-82
2021/04/13 12:28:32;;;;;;;0.50;0.50;;;9.20;99.90;;;;;;4994203;28;20225;-80
2021/04/13 12:31:04;;;;;;;1.17;1.07;;;9.30;99.90;;;;;;4968957;28;21030;-81
2021/04/13 12:33:29;;;;;;;0.10;0.10;;;9.30;99.90;;;;;;5010505;28;20214;-80
2021/04/13 12:36:05;;;;;;;0.20;0.20;;;9.30;99.90;;;;;;5044578;28;20623;-80
2021/04/13 12:38:56;;;;;;;0.30;0.30;;;9.10;99.90;;;;;;5047868;28;20213;-82
2021/04/13 12:41:30;;;;;;;2.00;0.73;;;9.10;99.90;;;;;;5049833;28;20255;-80
2021/04/13 12:43:58;;;;;;;0.70;0.70;;;9.00;99.90;;;;;;5051439;28;20181;-81
2021/04/13 12:46:33;;;;;;;0.10;0.10;;;9.20;99.90;;;;;;5047588;28;20221;-80
2021/04/13 12:49:04;;;;;;;0.20;0.20;;;9.40;99.90;;;;;;5048079;28;20244;-81
2021/04/13 12:51:48;;;;;;;0.10;0.10;;;9.40;99.90;;;;;;5051315;28;20214;-81
2021/04/13 12:54:33;;;;;;;0.20;0.20;;;9.40;99.90;;;;;;5044420;28;20222;-82
2021/04/13 12:57:08;;;;;;;0.20;0.20;;;9.60;99.90;;;;;;5047633;28;20237;-81
2021/04/13 12:59:35;;;;;;;1.50;0.83;;;9.40;99.90;;;;;;5049076;28;20229;-80
2021/04/13 13:02:04;;;;;;;0.40;0.40;;;9.50;99.90;;;;;;5049574;28;20192;-80
2021/04/13 13:04:41;;;;;;;2.53;0.80;;;9.50;99.90;;;;;;5029435;28;20210;-80
2021/04/13 13:07:19;;;;;;;0.17;0.17;;;9.50;99.90;;;;;;5046207;28;20306;-81
2021/04/13 13:09:45;;;;;;;0.30;0.30;;;9.50;99.90;;;;;;5047532;28;20568;-82
2021/04/13 13:12:17;;;;;;;0.67;0.57;;;9.40;99.90;;;;;;5016464;28;20231;-81
2021/04/13 13:14:46;;;;;;;0.60;0.60;;;9.50;99.90;;;;;;5044849;28;20337;-82
2021/04/13 13:17:43;;;;;;;0.40;0.27;;;9.40;99.90;;;;;;5049270;28;20289;-81
2021/04/13 13:20:15;;;;;;;0.30;0.30;;;9.70;99.90;;;;;;5047985;28;20307;-82
2021/04/13 13:22:50;;;;;;;0.30;0.30;;;9.50;99.90;;;;;;5051767;28;20192;-80
2021/04/13 13:25:18;;;;;;;2.10;0.67;;;9.60;99.90;;;;;;5063870;28;20311;-83
2021/04/13 13:27:47;;;;;;;0.20;0.20;;;9.90;99.90;;;;;;5047096;28;20222;-81
2021/04/13 13:30:16;;;;;;;0.20;0.20;;;9.80;99.90;;;;;;5048651;28;20399;-79
2021/04/13 13:32:43;;;;;;;0.17;0.17;;;9.70;99.90;;;;;;5046229;28;20221;-81
2021/04/13 13:35:17;;;;;;;0.20;0.20;;;9.60;99.90;;;;;;5028400;28;20195;-80
2021/04/13 13:37:51;;;;;;;0.40;0.40;;;9.60;99.90;;;;;;5049845;28;20227;-80
2021/04/13 13:40:22;;;;;;;0.40;0.40;;;9.80;99.90;;;;;;5047919;28;20217;-81
2021/04/13 13:42:50;;;;;;;0.20;0.20;;;9.90;99.90;;;;;;5046067;28;20674;-83
2021/04/13 13:45:37;;;;;;;0.37;0.37;;;10.20;99.90;;;;;;5047950;28;20245;-82
2021/04/13 13:48:23;;;;;;;0.10;0.10;;;9.90;99.90;;;;;;5048354;28;20228;-83
2021/04/13 13:51:01;;;;;;;0.30;0.30;;;9.70;99.90;;;;;;5048335;28;20224;-82
2021/04/13 13:53:27;;;;;;;0.20;0.20;;;9.80;99.90;;;;;;5049936;28;20252;-82
2021/04/13 13:55:55;;;;;;;0.20;0.20;;;9.80;99.90;;;;;;5046727;28;20602;-81